Clovis, New Mexico
Current Conditions -  °F | °C
As of 9:35 AM on Monday 26 Jan 2015 (Local Time) from KCVN Reporting Station
Clear Clear  
Wind Chill: 45°   Ceiling: Unl
Heat Index: 48°   Visibility: NA
Dew Point: 34°   Wind: 8mph
Humidity: 57%   Direction: 290°WNW
Pressure: 30.3"   Gusts: NA
Location:  34.41°N, 103.2°W
Report Text: KCVN 261635Z AUTO 29007KT CLR 09/01 A3030 RMK AO1
Loading
Personal Weather Stations






























Interactive Weather Map New forecast layout! Learn more

10-Day Weather Forecast

Advertisements
Track Severe Weather on mobile